Time;durP1;ratioP1;P1;durP2;ratioP2;P2;SDS_P1;SDS_P2;PMS_P1;PMS_P2;Temp;Humidity;BMP_temperature;BMP_pressure;BME280_temperature;BME280_humidity;BME280_pressure;Samples;Min_cycle;Max_cycle;Signal;HPM_P1;HPM_P2
2020/12/24 00:00:34;;;;;;;3.47;1.20;;;21.60;49.60;;;;;;1450728;97;21231;-36
2020/12/24 00:03:01;;;;;;;2.45;1.20;;;21.60;49.60;;;;;;1446594;97;21365;-36
2020/12/24 00:05:29;;;;;;;2.75;1.20;;;21.60;49.60;;;;;;1433615;97;21662;-37
2020/12/24 00:07:57;;;;;;;4.33;1.42;;;21.60;49.60;;;;;;1450995;97;21318;-37
2020/12/24 00:10:24;;;;;;;4.33;1.57;;;21.60;49.70;;;;;;1454933;97;21263;-37
2020/12/24 00:12:52;;;;;;;1.92;1.00;;;21.50;49.60;;;;;;1447977;98;21424;-36
2020/12/24 00:15:20;;;;;;;3.72;1.50;;;21.60;49.70;;;;;;1451386;97;21232;-36
2020/12/24 00:17:47;;;;;;;4.42;1.50;;;21.60;49.60;;;;;;1457371;97;21376;-35
2020/12/24 00:20:16;;;;;;;4.87;1.30;;;21.60;49.80;;;;;;1456165;97;21257;-36
2020/12/24 00:22:44;;;;;;;1.45;1.07;;;21.50;49.70;;;;;;1453670;97;21255;-36
2020/12/24 00:25:11;;;;;;;4.25;1.40;;;21.50;49.80;;;;;;1442073;97;21214;-37
2020/12/24 00:27:39;;;;;;;3.35;1.65;;;21.50;49.70;;;;;;1445710;97;21306;-36
2020/12/24 00:30:07;;;;;;;3.37;1.20;;;21.50;49.70;;;;;;1450660;97;21552;-37
2020/12/24 00:32:34;;;;;;;2.75;0.90;;;21.50;49.70;;;;;;1442328;97;21805;-35
2020/12/24 00:35:02;;;;;;;2.05;1.02;;;21.50;49.80;;;;;;1449861;97;21221;-36
2020/12/24 00:37:30;;;;;;;6.85;1.60;;;21.50;49.80;;;;;;1449709;97;21330;-36
2020/12/24 00:39:58;;;;;;;5.80;1.90;;;21.50;49.80;;;;;;1448230;97;21224;-35
2020/12/24 00:42:25;;;;;;;2.92;1.35;;;21.40;49.70;;;;;;1454490;97;21392;-36
2020/12/24 00:44:53;;;;;;;2.80;1.17;;;21.50;49.80;;;;;;1452586;97;21227;-35
2020/12/24 00:47:21;;;;;;;2.92;1.22;;;21.40;49.80;;;;;;1460093;97;21381;-35
2020/12/24 00:49:48;;;;;;;4.22;1.45;;;21.40;49.80;;;;;;1458198;97;21188;-36
2020/12/24 00:52:16;;;;;;;1.65;0.85;;;21.40;49.50;;;;;;1456621;97;21854;-36
2020/12/24 00:54:44;;;;;;;3.00;1.02;;;21.40;49.80;;;;;;1454999;97;21326;-35
2020/12/24 00:57:12;;;;;;;1.72;1.00;;;21.40;49.80;;;;;;1454716;97;21250;-36
2020/12/24 00:59:39;;;;;;;2.22;1.02;;;21.40;49.80;;;;;;1454298;97;22714;-36
2020/12/24 01:02:08;;;;;;;1.65;0.80;;;21.40;49.80;;;;;;1450040;97;21365;-35
2020/12/24 01:04:35;;;;;;;2.60;1.20;;;21.40;49.90;;;;;;1425265;97;21825;-36
2020/12/24 01:07:03;;;;;;;1.62;1.10;;;21.40;49.80;;;;;;1445304;97;21714;-36
2020/12/24 01:09:30;;;;;;;3.83;1.00;;;21.40;49.80;;;;;;1441933;97;21192;-36
2020/12/24 01:11:58;;;;;;;1.65;0.95;;;21.40;49.80;;;;;;1439232;97;21310;-37
2020/12/24 01:14:26;;;;;;;3.15;1.30;;;21.40;49.80;;;;;;1447489;97;22135;-36
2020/12/24 01:16:53;;;;;;;3.37;1.12;;;21.40;49.80;;;;;;1437803;98;21177;-37
2020/12/24 01:19:21;;;;;;;3.30;1.20;;;21.30;49.80;;;;;;1446158;97;21232;-36
2020/12/24 01:21:49;;;;;;;2.00;1.27;;;21.40;50.40;;;;;;1451260;97;21700;-36
2020/12/24 01:24:17;;;;;;;2.30;0.95;;;21.40;49.80;;;;;;1425758;97;21764;-37
2020/12/24 01:26:48;;;;;;;1.98;1.10;;;21.40;49.80;;;;;;1447372;97;21600;-35
2020/12/24 01:29:16;;;;;;;2.67;1.22;;;21.30;49.70;;;;;;1451352;97;21279;-36
2020/12/24 01:31:45;;;;;;;2.70;1.02;;;21.40;49.80;;;;;;1433749;98;21321;-35
2020/12/24 01:34:15;;;;;;;3.17;1.35;;;21.40;50.00;;;;;;1449961;97;21270;-36
2020/12/24 01:36:43;;;;;;;1.65;1.17;;;21.30;49.70;;;;;;1446610;97;21262;-37
2020/12/24 01:39:11;;;;;;;2.52;1.35;;;21.30;49.80;;;;;;1447935;97;21236;-36
2020/12/24 01:41:39;;;;;;;2.67;0.95;;;21.30;49.70;;;;;;1447622;97;21274;-36
2020/12/24 01:44:06;;;;;;;1.05;0.70;;;21.30;49.80;;;;;;1435976;97;21760;-36
2020/12/24 01:46:34;;;;;;;2.05;1.10;;;21.30;49.80;;;;;;1442694;97;21350;-35
2020/12/24 01:49:02;;;;;;;2.15;0.98;;;21.30;49.80;;;;;;1444931;97;21224;-36
2020/12/24 01:51:31;;;;;;;2.77;0.95;;;21.30;49.70;;;;;;1432121;97;21244;-36
2020/12/24 01:54:00;;;;;;;2.58;1.05;;;21.30;50.30;;;;;;1445149;97;21870;-35
2020/12/24 01:56:28;;;;;;;4.87;1.25;;;21.30;49.70;;;;;;1431914;97;21376;-35
2020/12/24 01:58:56;;;;;;;2.98;1.22;;;21.30;49.70;;;;;;1448797;97;21302;-36
2020/12/24 02:01:23;;;;;;;2.70;1.20;;;21.30;49.70;;;;;;1441993;97;21301;-36
2020/12/24 02:03:51;;;;;;;2.87;1.20;;;21.30;49.70;;;;;;1447578;97;21770;-36
2020/12/24 02:06:19;;;;;;;1.82;1.02;;;21.30;49.70;;;;;;1442738;97;21203;-35
2020/12/24 02:08:46;;;;;;;1.67;1.12;;;21.30;49.70;;;;;;1440834;97;21398;-35
2020/12/24 02:11:15;;;;;;;3.00;1.10;;;21.30;49.70;;;;;;1445875;96;21217;-37
2020/12/24 02:13:42;;;;;;;1.95;0.90;;;21.20;49.60;;;;;;1440551;97;21227;-35
2020/12/24 02:16:10;;;;;;;3.52;1.50;;;21.20;49.60;;;;;;1429063;97;21242;-33
2020/12/24 02:18:38;;;;;;;3.65;1.17;;;21.30;49.60;;;;;;1447122;96;21860;-35
2020/12/24 02:21:05;;;;;;;4.37;1.10;;;21.20;49.60;;;;;;1448770;96;21318;-35
2020/12/24 02:23:33;;;;;;;2.55;1.30;;;21.30;49.60;;;;;;1433546;97;21730;-35
2020/12/24 02:26:00;;;;;;;2.35;1.07;;;21.20;49.60;;;;;;1444988;96;21386;-35
2020/12/24 02:28:28;;;;;;;2.25;1.10;;;21.20;49.60;;;;;;1446932;96;21330;-37
2020/12/24 02:30:57;;;;;;;2.60;1.00;;;21.20;49.60;;;;;;1445215;96;21231;-36
2020/12/24 02:33:24;;;;;;;2.65;1.10;;;21.20;49.60;;;;;;1447813;97;21338;-35
2020/12/24 02:35:52;;;;;;;2.45;1.30;;;21.20;49.60;;;;;;1430193;97;21351;-35
2020/12/24 02:38:20;;;;;;;3.58;1.50;;;21.20;49.50;;;;;;1438969;97;21321;-36
2020/12/24 02:40:47;;;;;;;2.33;1.17;;;21.20;49.50;;;;;;1448316;97;21325;-34
2020/12/24 02:43:15;;;;;;;2.40;0.95;;;21.20;49.50;;;;;;1436203;96;21234;-36
2020/12/24 02:45:43;;;;;;;2.05;1.00;;;21.20;49.50;;;;;;1450475;97;21482;-35
2020/12/24 02:48:10;;;;;;;1.75;1.07;;;21.20;49.40;;;;;;1455364;97;21279;-36
2020/12/24 02:50:38;;;;;;;1.72;1.12;;;21.30;49.50;;;;;;1453489;97;21250;-35
2020/12/24 02:53:06;;;;;;;1.42;0.98;;;21.20;49.40;;;;;;1452234;97;21251;-36
2020/12/24 02:55:33;;;;;;;2.90;1.10;;;21.30;49.40;;;;;;1429783;97;21219;-36
2020/12/24 02:58:01;;;;;;;3.05;1.30;;;21.30;49.30;;;;;;1452639;97;21283;-35
2020/12/24 03:00:29;;;;;;;2.22;0.80;;;21.30;49.50;;;;;;1456237;97;21269;-36
2020/12/24 03:02:56;;;;;;;1.12;0.88;;;21.30;49.30;;;;;;1448029;98;21293;-34
2020/12/24 03:05:24;;;;;;;1.67;0.98;;;21.40;49.30;;;;;;1455892;97;21767;-35
2020/12/24 03:07:53;;;;;;;1.85;0.88;;;21.40;49.20;;;;;;1428283;97;21330;-36
2020/12/24 03:10:20;;;;;;;2.75;1.10;;;21.40;49.20;;;;;;1459994;97;21340;-34
2020/12/24 03:12:48;;;;;;;2.65;1.20;;;21.40;49.60;;;;;;1455744;97;21418;-35
2020/12/24 03:15:16;;;;;;;1.15;0.80;;;21.40;49.10;;;;;;1442934;97;21306;-35
2020/12/24 03:17:43;;;;;;;2.37;0.90;;;21.40;49.10;;;;;;1456174;97;21863;-35
2020/12/24 03:20:11;;;;;;;2.42;1.12;;;21.40;49.00;;;;;;1456598;97;21260;-35
2020/12/24 03:22:39;;;;;;;4.55;1.42;;;21.40;49.00;;;;;;1440846;97;21366;-35
2020/12/24 03:25:06;;;;;;;2.42;0.93;;;21.40;49.00;;;;;;1456738;97;21220;-34
2020/12/24 03:27:34;;;;;;;3.10;0.90;;;21.40;49.00;;;;;;1441960;97;21336;-37
2020/12/24 03:30:02;;;;;;;2.50;1.00;;;21.40;48.90;;;;;;1452962;97;21371;-35
2020/12/24 03:32:30;;;;;;;2.98;0.90;;;21.40;48.90;;;;;;1450349;97;21704;-35
2020/12/24 03:34:57;;;;;;;1.70;1.10;;;21.40;48.80;;;;;;1426639;97;21305;-35
2020/12/24 03:37:25;;;;;;;1.85;1.00;;;21.40;48.80;;;;;;1456813;97;21304;-35
2020/12/24 03:39:53;;;;;;;2.08;0.95;;;21.40;48.80;;;;;;1457273;97;21773;-36
2020/12/24 03:42:20;;;;;;;1.77;0.82;;;21.40;48.80;;;;;;1441539;97;21172;-35
2020/12/24 03:44:48;;;;;;;2.60;1.42;;;21.40;48.80;;;;;;1457899;97;21712;-35
2020/12/24 03:47:16;;;;;;;1.62;0.90;;;21.50;48.80;;;;;;1435276;97;21294;-35
2020/12/24 03:49:44;;;;;;;1.60;1.00;;;21.40;48.70;;;;;;1452199;97;21801;-36
2020/12/24 03:52:11;;;;;;;2.60;0.95;;;21.50;48.80;;;;;;1454917;97;21674;-34
2020/12/24 03:54:39;;;;;;;4.35;1.37;;;21.50;48.70;;;;;;1444446;97;21246;-36
2020/12/24 03:57:07;;;;;;;3.12;0.72;;;21.50;48.70;;;;;;1468320;97;21381;-35
2020/12/24 03:59:34;;;;;;;2.25;1.12;;;21.50;48.70;;;;;;1458636;97;21313;-35
2020/12/24 04:02:02;;;;;;;1.87;1.10;;;21.50;48.70;;;;;;1459844;97;21251;-35
2020/12/24 04:04:30;;;;;;;3.22;1.17;;;21.50;48.60;;;;;;1441128;97;21240;-34
2020/12/24 04:06:58;;;;;;;1.95;1.20;;;21.50;48.70;;;;;;1460363;97;21260;-35
2020/12/24 04:09:26;;;;;;;3.37;0.72;;;21.50;48.60;;;;;;1457836;97;21498;-34
2020/12/24 04:11:53;;;;;;;2.22;1.20;;;21.50;48.60;;;;;;1451431;97;21743;-36
2020/12/24 04:14:21;;;;;;;2.50;1.07;;;21.50;48.50;;;;;;1449210;97;21854;-35
2020/12/24 04:16:49;;;;;;;2.10;1.00;;;21.50;48.50;;;;;;1468319;97;21307;-36
2020/12/24 04:19:16;;;;;;;1.55;0.70;;;21.50;49.10;;;;;;1442811;97;21298;-35
2020/12/24 04:21:44;;;;;;;2.02;1.02;;;21.50;48.50;;;;;;1438297;97;21304;-34
2020/12/24 04:24:12;;;;;;;1.55;0.70;;;21.50;48.50;;;;;;1455966;97;21687;-35
2020/12/24 04:26:39;;;;;;;2.47;0.90;;;21.50;48.50;;;;;;1423921;97;21294;-35
2020/12/24 04:29:07;;;;;;;3.95;1.30;;;21.50;48.50;;;;;;1452745;97;22406;-35
2020/12/24 04:31:36;;;;;;;1.85;0.80;;;21.50;48.50;;;;;;1457187;97;21615;-35
2020/12/24 04:34:04;;;;;;;2.42;0.90;;;21.50;48.50;;;;;;1456205;97;21236;-36
2020/12/24 04:36:31;;;;;;;1.90;0.93;;;21.50;48.50;;;;;;1451860;97;21411;-34
2020/12/24 04:38:59;;;;;;;2.22;0.80;;;21.50;48.40;;;;;;1453712;97;21277;-35
2020/12/24 04:41:27;;;;;;;2.80;1.15;;;21.50;48.40;;;;;;1457148;97;21276;-35
2020/12/24 04:43:55;;;;;;;1.55;1.00;;;21.50;48.40;;;;;;1455149;97;21252;-35
2020/12/24 04:46:25;;;;;;;2.02;0.88;;;21.60;48.40;;;;;;1435180;97;21314;-35
2020/12/24 04:48:53;;;;;;;1.72;0.90;;;21.50;48.40;;;;;;1444920;97;21301;-35
2020/12/24 04:51:23;;;;;;;1.95;0.93;;;21.50;48.40;;;;;;1450563;97;22463;-35
2020/12/24 04:53:51;;;;;;;1.42;0.95;;;21.50;48.40;;;;;;1429300;97;21326;-35
2020/12/24 04:56:19;;;;;;;2.10;0.80;;;21.50;48.40;;;;;;1469467;97;21207;-34
2020/12/24 04:58:46;;;;;;;2.02;0.90;;;21.50;48.40;;;;;;1438342;97;21322;-34
2020/12/24 05:01:19;;;;;;;1.82;0.90;;;21.50;48.30;;;;;;1434018;97;21311;-35
2020/12/24 05:03:48;;;;;;;2.20;1.02;;;21.50;48.60;;;;;;1452374;97;21224;-34
2020/12/24 05:06:18;;;;;;;1.65;0.82;;;21.50;48.30;;;;;;1458570;97;21283;-36
2020/12/24 05:08:58;;;;;;;2.55;0.90;;;21.50;48.30;;;;;;1446115;97;21331;-35
2020/12/24 05:11:33;;;;;;;1.37;0.80;;;21.50;48.30;;;;;;1447170;97;67965;-36
2020/12/24 05:14:21;;;;;;;3.45;1.40;;;21.60;47.80;;;;;;1430536;98;21415;-35
2020/12/24 05:17:08;;;;;;;2.05;0.70;;;21.50;48.30;;;;;;1447527;97;67806;-35
2020/12/24 05:19:49;;;;;;;1.17;0.72;;;21.60;48.30;;;;;;1422969;99;67831;-34
2020/12/24 05:22:21;;;;;;;1.60;0.80;;;21.60;48.30;;;;;;1427519;98;68007;-36
2020/12/24 05:24:48;;;;;;;1.95;1.00;;;21.50;48.20;;;;;;1460067;97;21212;-35
2020/12/24 05:27:22;;;;;;;1.65;0.90;;;21.60;48.30;;;;;;1448745;97;21374;-35
2020/12/24 05:29:52;;;;;;;2.42;1.00;;;21.60;48.30;;;;;;1449530;97;21267;-35
2020/12/24 05:32:30;;;;;;;1.67;0.80;;;21.50;48.20;;;;;;1444268;97;21242;-34
2020/12/24 05:35:12;;;;;;;1.35;0.82;;;21.60;48.30;;;;;;1455757;97;21223;-35
2020/12/24 05:37:40;;;;;;;2.08;1.00;;;21.60;48.20;;;;;;1415821;97;67532;-35
2020/12/24 05:40:19;;;;;;;1.17;0.80;;;21.60;48.20;;;;;;1451634;97;21266;-35
2020/12/24 05:42:49;;;;;;;2.20;0.88;;;21.60;48.20;;;;;;1436634;98;21570;-36
2020/12/24 05:45:19;;;;;;;1.98;0.82;;;21.50;48.20;;;;;;1449861;97;21305;-35
2020/12/24 05:47:46;;;;;;;0.90;0.60;;;21.50;48.20;;;;;;1450228;97;21269;-35
2020/12/24 05:50:26;;;;;;;2.60;0.78;;;21.50;48.20;;;;;;1456734;97;21255;-35
2020/12/24 05:53:04;;;;;;;1.47;0.80;;;21.50;48.20;;;;;;1456425;97;21457;-36
2020/12/24 05:55:33;;;;;;;1.82;0.85;;;21.50;48.10;;;;;;1443561;97;21654;-35
2020/12/24 05:58:00;;;;;;;1.37;0.70;;;21.60;48.20;;;;;;1423101;98;21222;-35
2020/12/24 06:00:43;;;;;;;2.87;1.22;;;21.50;48.10;;;;;;1452779;97;21963;-35
2020/12/24 06:03:16;;;;;;;1.57;1.00;;;21.60;48.20;;;;;;1459644;96;21240;-35
2020/12/24 06:05:49;;;;;;;2.75;0.90;;;21.60;48.20;;;;;;1461887;97;21180;-35
2020/12/24 06:08:17;;;;;;;0.82;0.78;;;21.60;48.20;;;;;;1453526;97;21224;-37
2020/12/24 06:10:46;;;;;;;1.37;0.80;;;21.60;48.20;;;;;;1442842;97;21232;-34
2020/12/24 06:13:20;;;;;;;1.62;0.80;;;21.60;48.20;;;;;;1461848;97;21216;-36
2020/12/24 06:15:50;;;;;;;3.10;0.80;;;21.50;48.10;;;;;;1454319;97;21652;-35
2020/12/24 06:18:18;;;;;;;1.17;0.68;;;21.60;48.10;;;;;;1443739;98;21172;-35
2020/12/24 06:20:48;;;;;;;4.83;0.80;;;21.60;48.20;;;;;;1462800;97;21219;-36
2020/12/24 06:23:18;;;;;;;1.65;0.70;;;21.60;48.20;;;;;;1449101;97;21169;-36
2020/12/24 06:25:45;;;;;;;1.72;0.85;;;21.60;48.10;;;;;;1454965;97;21295;-35
2020/12/24 06:28:14;;;;;;;1.65;0.98;;;21.50;48.00;;;;;;1454740;97;22718;-36
2020/12/24 06:30:41;;;;;;;1.25;0.80;;;21.60;48.10;;;;;;1455111;97;21240;-36
2020/12/24 06:33:10;;;;;;;1.65;0.80;;;21.60;48.10;;;;;;1451187;97;21956;-35
2020/12/24 06:35:40;;;;;;;1.40;0.80;;;21.50;48.00;;;;;;1452829;96;21698;-35
2020/12/24 06:38:15;;;;;;;1.70;1.00;;;21.60;48.00;;;;;;1453054;96;21286;-37
2020/12/24 06:40:41;;;;;;;3.02;0.80;;;21.60;48.00;;;;;;1453470;96;21338;-34
2020/12/24 06:43:10;;;;;;;1.57;0.70;;;21.60;48.00;;;;;;1456549;96;21188;-35
2020/12/24 06:45:40;;;;;;;1.60;0.68;;;21.60;48.10;;;;;;1451541;96;21357;-36
2020/12/24 06:48:19;;;;;;;1.30;0.82;;;21.60;48.00;;;;;;1454446;97;21435;-35
2020/12/24 06:50:48;;;;;;;1.35;0.80;;;21.60;48.00;;;;;;1438095;97;21211;-35
2020/12/24 06:53:30;;;;;;;2.37;1.05;;;21.60;48.00;;;;;;1451116;96;21298;-35
2020/12/24 06:56:22;;;;;;;0.78;0.62;;;21.60;48.00;;;;;;1453659;96;67863;-35
2020/12/24 06:59:04;;;;;;;1.12;0.70;;;21.60;48.00;;;;;;1460215;94;68090;-37
2020/12/24 07:01:37;;;;;;;2.70;0.93;;;21.60;48.00;;;;;;1454844;97;21691;-36
2020/12/24 07:04:06;;;;;;;3.17;1.00;;;21.60;48.00;;;;;;1436504;97;21200;-36
2020/12/24 07:06:49;;;;;;;1.92;0.93;;;21.60;48.00;;;;;;1452534;97;21191;-35
2020/12/24 07:09:24;;;;;;;2.40;0.98;;;21.60;48.00;;;;;;1452728;97;67808;-37
2020/12/24 07:11:53;;;;;;;1.65;0.90;;;21.60;48.00;;;;;;1453922;97;21592;-35
2020/12/24 07:14:32;;;;;;;1.67;0.70;;;21.60;48.00;;;;;;1453237;96;22641;-35
2020/12/24 07:17:13;;;;;;;1.10;0.75;;;21.60;48.00;;;;;;1451966;97;21259;-35
2020/12/24 07:19:46;;;;;;;1.72;0.90;;;21.60;48.00;;;;;;1451010;97;68098;-35
2020/12/24 07:22:23;;;;;;;1.20;0.78;;;21.60;48.00;;;;;;1439003;97;21614;-34
2020/12/24 07:25:03;;;;;;;1.40;0.75;;;21.60;48.00;;;;;;1459729;96;21840;-33
2020/12/24 07:27:28;;;;;;;1.82;0.78;;;21.60;48.00;;;;;;1453632;97;21225;-34
2020/12/24 07:29:57;;;;;;;2.70;1.12;;;21.60;48.00;;;;;;1459913;96;21346;-36
2020/12/24 07:32:25;;;;;;;1.70;0.75;;;21.60;48.00;;;;;;1454289;97;21326;-35
2020/12/24 07:34:52;;;;;;;1.98;1.17;;;21.60;48.00;;;;;;1456881;97;21813;-36
2020/12/24 07:37:22;;;;;;;1.70;0.60;;;21.60;47.90;;;;;;1457093;96;21188;-35
2020/12/24 07:39:55;;;;;;;1.67;0.78;;;21.60;48.00;;;;;;1454708;96;21295;-35
2020/12/24 07:42:26;;;;;;;1.75;0.82;;;21.60;47.90;;;;;;1443421;98;21740;-33
2020/12/24 07:44:54;;;;;;;0.95;0.50;;;21.60;47.90;;;;;;1452353;97;21191;-36
2020/12/24 07:47:24;;;;;;;1.75;1.02;;;21.60;47.90;;;;;;1453092;97;21300;-35
2020/12/24 07:49:53;;;;;;;2.00;0.80;;;21.60;47.90;;;;;;1433871;97;21299;-36
2020/12/24 07:52:21;;;;;;;1.90;0.82;;;21.60;47.90;;;;;;1454231;96;21699;-35
2020/12/24 07:54:49;;;;;;;1.35;0.82;;;21.60;47.90;;;;;;1459206;96;21753;-35
2020/12/24 07:57:24;;;;;;;1.75;0.88;;;21.60;47.90;;;;;;1461109;97;21225;-38
2020/12/24 08:00:00;;;;;;;1.22;0.90;;;21.60;47.90;;;;;;1454275;96;21180;-35
2020/12/24 08:02:28;;;;;;;2.02;0.90;;;21.60;47.90;;;;;;1436687;97;21220;-35
2020/12/24 08:04:56;;;;;;;2.42;0.90;;;21.60;48.00;;;;;;1452496;97;21164;-35
2020/12/24 08:07:24;;;;;;;2.22;0.82;;;21.60;47.90;;;;;;1447651;97;21293;-35
2020/12/24 08:09:51;;;;;;;1.50;0.90;;;21.60;47.90;;;;;;1434295;97;21215;-35
2020/12/24 08:12:22;;;;;;;2.40;0.93;;;21.60;47.90;;;;;;1446863;97;21160;-37
2020/12/24 08:14:50;;;;;;;0.93;0.60;;;21.60;47.90;;;;;;1449179;97;21204;-35
2020/12/24 08:17:36;;;;;;;1.27;0.70;;;21.60;47.90;;;;;;1433873;98;21326;-34
2020/12/24 08:20:08;;;;;;;0.97;0.70;;;21.60;47.80;;;;;;1424200;98;67804;-35
2020/12/24 08:22:48;;;;;;;2.27;1.00;;;21.60;47.80;;;;;;1384411;100;22045;-36
2020/12/24 08:25:17;;;;;;;1.55;0.70;;;21.60;47.90;;;;;;1428304;97;67273;-36
2020/12/24 08:27:47;;;;;;;2.15;1.00;;;21.60;47.90;;;;;;1430884;97;21279;-35
2020/12/24 08:30:16;;;;;;;2.27;0.90;;;21.60;47.90;;;;;;1445252;97;21267;-36
2020/12/24 08:32:44;;;;;;;1.40;0.65;;;21.60;47.90;;;;;;1449558;97;21215;-35
2020/12/24 08:35:14;;;;;;;1.17;0.57;;;21.60;47.90;;;;;;1446450;97;21446;-35
2020/12/24 08:37:42;;;;;;;1.90;0.80;;;21.60;47.80;;;;;;1447875;97;21699;-35
2020/12/24 08:40:26;;;;;;;0.72;0.50;;;21.70;47.90;;;;;;1433139;97;21192;-38
2020/12/24 08:42:59;;;;;;;2.40;0.85;;;21.60;47.80;;;;;;1439858;97;67158;-36
2020/12/24 08:45:28;;;;;;;1.30;0.90;;;21.60;47.80;;;;;;1430480;98;21239;-34
2020/12/24 08:47:55;;;;;;;1.40;0.93;;;21.60;47.90;;;;;;1401821;98;21210;-36
2020/12/24 08:50:30;;;;;;;2.05;0.80;;;21.60;47.90;;;;;;1427945;98;21329;-35
2020/12/24 08:52:59;;;;;;;0.93;0.55;;;21.60;47.80;;;;;;1418054;98;21255;-35
2020/12/24 08:55:29;;;;;;;1.30;0.75;;;21.60;47.80;;;;;;1416982;98;21272;-36
2020/12/24 08:57:57;;;;;;;1.72;0.60;;;21.60;47.80;;;;;;1430911;98;22430;-35
2020/12/24 09:00:26;;;;;;;0.95;0.50;;;21.60;47.80;;;;;;1411743;98;21287;-35
2020/12/24 09:02:53;;;;;;;0.78;0.70;;;21.60;47.90;;;;;;1443340;97;21291;-37
2020/12/24 09:05:26;;;;;;;0.70;0.55;;;21.60;47.90;;;;;;1452191;97;21310;-35
2020/12/24 09:07:54;;;;;;;1.37;0.80;;;21.60;47.80;;;;;;1436878;97;21299;-35
2020/12/24 09:10:28;;;;;;;0.95;0.60;;;21.60;47.80;;;;;;1449149;97;21236;-34
2020/12/24 09:13:00;;;;;;;1.72;0.80;;;21.60;47.80;;;;;;1450696;97;21263;-34
2020/12/24 09:15:28;;;;;;;1.37;0.70;;;21.60;47.80;;;;;;1448782;97;21259;-34
2020/12/24 09:17:59;;;;;;;0.60;0.50;;;21.70;47.80;;;;;;1453236;97;21901;-35
2020/12/24 09:20:29;;;;;;;1.10;0.60;;;21.60;47.80;;;;;;1421340;97;21228;-34
2020/12/24 09:23:01;;;;;;;0.55;0.53;;;21.60;47.80;;;;;;1456321;97;21175;-36
2020/12/24 09:25:31;;;;;;;0.70;0.55;;;21.60;47.80;;;;;;1456185;96;21168;-36
2020/12/24 09:27:59;;;;;;;0.98;0.70;;;21.60;47.80;;;;;;1444845;96;21231;-36
2020/12/24 09:30:28;;;;;;;1.02;0.50;;;21.60;47.80;;;;;;1458340;96;21285;-35
2020/12/24 09:33:03;;;;;;;1.27;0.78;;;21.70;47.80;;;;;;1460667;96;21220;-35
2020/12/24 09:35:31;;;;;;;1.30;0.65;;;21.60;47.80;;;;;;1458104;96;21839;-35
2020/12/24 09:37:58;;;;;;;0.70;0.50;;;21.60;47.80;;;;;;1437418;97;21234;-35
2020/12/24 09:40:26;;;;;;;0.60;0.50;;;21.60;47.70;;;;;;1458764;96;21377;-46
2020/12/24 09:42:54;;;;;;;0.88;0.50;;;21.70;47.80;;;;;;1453158;97;22148;-33
2020/12/24 09:45:23;;;;;;;1.62;0.60;;;21.60;47.80;;;;;;1437859;98;21184;-35
2020/12/24 09:47:51;;;;;;;0.98;0.70;;;21.70;47.80;;;;;;1451701;97;21258;-35
2020/12/24 09:50:19;;;;;;;0.82;0.60;;;21.70;47.80;;;;;;1452383;97;21235;-36
2020/12/24 09:52:46;;;;;;;0.57;0.50;;;21.70;47.80;;;;;;1423906;97;21259;-37
2020/12/24 09:55:14;;;;;;;1.00;0.65;;;21.70;47.70;;;;;;1452183;97;21324;-36
2020/12/24 09:57:42;;;;;;;0.60;0.60;;;21.70;47.70;;;;;;1450697;97;21394;-38
2020/12/24 10:00:11;;;;;;;0.50;0.50;;;21.70;47.80;;;;;;1438195;97;21215;-35
2020/12/24 10:02:40;;;;;;;1.22;0.47;;;21.60;47.70;;;;;;1451760;97;21714;-38
2020/12/24 10:05:08;;;;;;;1.67;0.60;;;21.70;47.70;;;;;;1453675;97;21362;-36
2020/12/24 10:07:36;;;;;;;0.65;0.50;;;21.70;47.70;;;;;;1449555;97;21317;-35
2020/12/24 10:10:05;;;;;;;0.85;0.60;;;21.60;47.70;;;;;;1454975;96;21582;-37
2020/12/24 10:12:33;;;;;;;0.72;0.55;;;21.70;47.70;;;;;;1449658;97;21764;-36
2020/12/24 10:15:00;;;;;;;0.62;0.50;;;21.60;47.90;;;;;;1451734;97;21219;-37
2020/12/24 10:17:28;;;;;;;1.42;0.70;;;21.70;48.00;;;;;;1436338;97;21178;-39
2020/12/24 10:19:56;;;;;;;0.98;0.60;;;21.80;47.90;;;;;;1437568;97;21251;-35
2020/12/24 10:22:24;;;;;;;0.90;0.65;;;21.80;47.90;;;;;;1449296;97;21286;-40
2020/12/24 10:24:53;;;;;;;0.93;0.60;;;21.80;47.90;;;;;;1441495;97;21274;-38
2020/12/24 10:27:21;;;;;;;2.45;0.80;;;21.90;48.00;;;;;;1454491;96;21287;-36
2020/12/24 10:29:49;;;;;;;1.42;0.70;;;21.90;47.90;;;;;;1455086;96;22782;-40
2020/12/24 10:32:16;;;;;;;1.55;0.60;;;22.00;48.70;;;;;;1439037;97;21186;-36
2020/12/24 10:34:44;;;;;;;4.35;0.72;;;22.00;47.80;;;;;;1454573;96;21786;-36
2020/12/24 10:37:12;;;;;;;0.70;0.60;;;22.00;47.80;;;;;;1455655;97;21157;-37
2020/12/24 10:39:39;;;;;;;1.20;0.60;;;22.00;47.60;;;;;;1439657;97;21291;-37
2020/12/24 10:42:07;;;;;;;8.20;0.65;;;22.10;48.20;;;;;;1449669;97;21826;-36
2020/12/24 10:44:35;;;;;;;1.72;0.70;;;22.10;47.50;;;;;;1440278;97;21203;-36
2020/12/24 10:47:02;;;;;;;4.60;0.75;;;22.20;47.60;;;;;;1449530;97;21260;-35
2020/12/24 10:49:30;;;;;;;1.55;0.72;;;22.20;47.50;;;;;;1438182;97;21897;-36
2020/12/24 10:51:58;;;;;;;3.83;0.60;;;22.20;47.50;;;;;;1452599;97;21244;-37
2020/12/24 10:54:25;;;;;;;0.72;0.50;;;22.20;47.50;;;;;;1451330;97;21931;-36
2020/12/24 10:56:53;;;;;;;4.53;0.65;;;22.20;47.60;;;;;;1451134;96;21186;-38
2020/12/24 10:59:21;;;;;;;1.67;0.80;;;22.30;47.50;;;;;;1434617;97;21821;-38
2020/12/24 11:01:50;;;;;;;0.82;0.50;;;22.30;47.60;;;;;;1451610;97;21188;-38
2020/12/24 11:04:18;;;;;;;0.55;0.50;;;22.30;47.40;;;;;;1436463;98;21176;-36
2020/12/24 11:06:45;;;;;;;1.00;0.60;;;22.30;47.80;;;;;;1448565;97;21227;-37
2020/12/24 11:09:14;;;;;;;1.22;0.68;;;22.30;47.30;;;;;;1448315;97;21268;-36
2020/12/24 11:11:43;;;;;;;0.53;0.40;;;22.30;47.20;;;;;;1447882;97;21239;-38
2020/12/24 11:14:11;;;;;;;2.83;0.57;;;22.30;47.30;;;;;;1445823;97;21196;-36
2020/12/24 11:16:39;;;;;;;2.95;0.50;;;22.30;47.50;;;;;;1432401;97;21321;-35
2020/12/24 11:19:06;;;;;;;5.35;0.78;;;22.30;47.50;;;;;;1432759;98;21311;-37
2020/12/24 11:21:35;;;;;;;4.87;1.42;;;22.30;47.70;;;;;;1446875;97;21274;-37
2020/12/24 11:24:06;;;;;;;9.15;1.77;;;22.30;47.80;;;;;;1448284;97;21295;-36
2020/12/24 11:26:36;;;;;;;9.00;2.00;;;22.30;48.00;;;;;;1447755;97;21183;-36
2020/12/24 11:29:05;;;;;;;13.13;2.30;;;22.30;48.30;;;;;;1447431;97;21290;-35
2020/12/24 11:31:35;;;;;;;12.13;2.70;;;22.30;48.40;;;;;;1434056;97;21651;-37
2020/12/24 11:34:04;;;;;;;18.25;3.37;;;22.40;48.60;;;;;;1450133;97;21219;-35
2020/12/24 11:36:32;;;;;;;19.60;2.62;;;22.30;48.60;;;;;;1433733;97;21733;-36
2020/12/24 11:39:00;;;;;;;15.45;2.58;;;22.30;48.50;;;;;;1448452;97;21297;-33
2020/12/24 11:41:29;;;;;;;12.25;2.15;;;22.40;48.50;;;;;;1446232;97;21315;-35
2020/12/24 11:43:58;;;;;;;7.60;1.98;;;22.30;48.40;;;;;;1432613;97;21230;-35
2020/12/24 11:46:27;;;;;;;7.12;1.90;;;22.40;48.30;;;;;;1449170;97;21366;-34
2020/12/24 11:48:56;;;;;;;9.70;2.08;;;22.40;48.20;;;;;;1446798;97;21276;-38
2020/12/24 11:51:24;;;;;;;9.98;2.37;;;22.40;48.10;;;;;;1434759;97;21183;-37
2020/12/24 11:53:53;;;;;;;10.30;2.27;;;22.40;48.00;;;;;;1448592;97;21287;-36
2020/12/24 11:56:23;;;;;;;7.33;2.00;;;22.30;47.80;;;;;;1447622;97;21235;-34
2020/12/24 11:58:52;;;;;;;12.30;2.12;;;22.40;47.80;;;;;;1447059;97;22840;-37
2020/12/24 12:01:22;;;;;;;12.35;2.02;;;22.40;47.60;;;;;;1447280;97;21258;-33
2020/12/24 12:03:51;;;;;;;10.58;1.60;;;22.40;47.50;;;;;;1428702;97;21176;-35
2020/12/24 12:06:20;;;;;;;5.33;1.82;;;22.40;47.60;;;;;;1438143;97;21476;-35
2020/12/24 12:08:49;;;;;;;8.43;2.00;;;22.40;47.50;;;;;;1440329;97;21208;-37
2020/12/24 12:11:17;;;;;;;5.65;1.45;;;22.40;47.40;;;;;;1440361;97;21350;-36
2020/12/24 12:13:49;;;;;;;6.22;1.40;;;22.50;47.40;;;;;;1442994;97;21283;-36
2020/12/24 12:16:25;;;;;;;7.85;1.70;;;22.50;47.50;;;;;;1443054;97;21208;-37
2020/12/24 12:18:52;;;;;;;;;;;22.50;47.40;;;;;;1427814;99;21220;-35
2020/12/24 12:21:21;;;;;;;4.53;1.60;;;22.50;47.50;;;;;;1440666;97;20222;-38
2020/12/24 12:23:49;;;;;;;4.58;1.27;;;22.50;47.40;;;;;;1439656;97;21351;-37
2020/12/24 12:26:17;;;;;;;5.03;1.65;;;22.50;47.30;;;;;;1439299;97;21208;-36
2020/12/24 12:28:47;;;;;;;8.85;1.55;;;22.50;47.40;;;;;;1440175;97;21678;-38
2020/12/24 12:31:22;;;;;;;6.37;1.52;;;22.60;47.20;;;;;;1423682;98;21277;-36
2020/12/24 12:33:51;;;;;;;2.63;1.07;;;22.60;47.20;;;;;;1440531;97;21346;-34
2020/12/24 12:36:19;;;;;;;7.20;2.17;;;22.60;47.20;;;;;;1441107;97;22625;-38
2020/12/24 12:38:49;;;;;;;6.78;1.45;;;22.60;47.20;;;;;;1426606;97;21200;-35
2020/12/24 12:41:18;;;;;;;3.27;1.12;;;22.60;47.10;;;;;;1439713;97;21279;-37
2020/12/24 12:43:46;;;;;;;4.55;1.00;;;22.60;47.10;;;;;;1425251;98;21604;-36
2020/12/24 12:46:19;;;;;;;4.25;1.20;;;22.60;47.00;;;;;;1425210;98;21699;-38
2020/12/24 12:48:48;;;;;;;6.87;1.32;;;22.60;47.00;;;;;;1436626;98;21220;-36
2020/12/24 12:51:16;;;;;;;3.22;1.20;;;22.50;46.90;;;;;;1411326;98;21192;-36
2020/12/24 12:53:44;;;;;;;7.95;1.20;;;22.50;46.90;;;;;;1439320;97;21216;-36
2020/12/24 12:56:12;;;;;;;3.83;1.40;;;22.50;46.90;;;;;;1445846;97;21204;-36